Time;durP1;ratioP1;P1;durP2;ratioP2;P2;SDS_P1;SDS_P2;PMS_P1;PMS_P2;Temp;Humidity;BMP_temperature;BMP_pressure;BME280_temperature;BME280_humidity;BME280_pressure;Samples;Min_cycle;Max_cycle;Signal;HPM_P1;HPM_P2
2022/11/27 00:01:33;;;;;;;14.75;3.85;;;;;;;8.01;82.29;102560.03;5056582;28;20028;-50
2022/11/27 00:03:58;;;;;;;11.88;3.83;;;;;;;8.00;82.37;102553.09;5058480;28;20969;-50
2022/11/27 00:06:26;;;;;;;13.82;3.85;;;;;;;8.01;82.64;102554.00;5058075;28;20032;-48
2022/11/27 00:08:56;;;;;;;12.75;4.20;;;;;;;7.99;82.56;102559.00;5062004;28;20044;-50
2022/11/27 00:11:23;;;;;;;12.35;3.80;;;;;;;8.00;82.31;102557.31;5057819;28;20033;-49
2022/11/27 00:13:50;;;;;;;11.23;4.22;;;;;;;7.93;82.54;102552.59;5063952;28;20060;-49
2022/11/27 00:16:16;;;;;;;11.27;3.88;;;;;;;7.96;82.46;102550.25;5060965;28;20571;-49
2022/11/27 00:18:42;;;;;;;13.45;4.00;;;;;;;7.97;82.45;102555.47;5063421;28;20058;-51
2022/11/27 00:21:13;;;;;;;14.38;4.00;;;;;;;7.98;82.51;102544.44;5063968;28;20696;-49
2022/11/27 00:23:39;;;;;;;17.40;4.47;;;;;;;7.92;82.42;102546.59;5063899;28;20508;-50
2022/11/27 00:26:05;;;;;;;18.05;4.78;;;;;;;7.91;82.43;102542.25;5057185;28;20148;-44
2022/11/27 00:28:32;;;;;;;14.65;3.92;;;;;;;7.88;82.71;102533.47;5065633;28;20400;-46
2022/11/27 00:31:13;;;;;;;13.27;3.67;;;;;;;7.90;82.73;102522.56;5062785;28;20039;-48
2022/11/27 00:33:38;;;;;;;12.52;3.60;;;;;;;7.90;82.56;102530.25;5056056;28;20481;-50
2022/11/27 00:36:05;;;;;;;11.70;4.28;;;;;;;7.85;82.44;102513.69;5064114;28;20036;-51
2022/11/27 00:38:30;;;;;;;12.32;4.55;;;;;;;7.85;82.52;102513.69;5063751;28;20041;-48
2022/11/27 00:41:09;;;;;;;18.83;4.53;;;;;;;7.84;82.89;102517.03;5067835;28;20063;-47
2022/11/27 00:43:36;;;;;;;11.00;4.30;;;;;;;7.81;82.61;102524.50;5063199;28;20814;-50
2022/11/27 00:46:01;;;;;;;15.00;4.18;;;;;;;7.73;82.80;102518.00;5062446;28;20377;-50
2022/11/27 00:48:27;;;;;;;13.57;4.03;;;;;;;7.72;82.76;102526.47;5062631;28;20020;-48
2022/11/27 00:50:58;;;;;;;16.98;4.40;;;;;;;7.70;83.33;102517.78;5066514;28;20439;-49
2022/11/27 00:53:23;;;;;;;17.52;3.80;;;;;;;7.68;82.94;102517.69;5066824;28;20086;-51
2022/11/27 00:55:49;;;;;;;13.43;4.18;;;;;;;7.67;82.85;102512.47;5066324;28;20037;-46
2022/11/27 00:58:14;;;;;;;19.08;4.35;;;;;;;7.63;83.10;102511.38;5059880;28;20075;-48
2022/11/27 01:00:39;;;;;;;14.32;3.80;;;;;;;7.64;83.04;102510.59;5060298;28;20028;-46
2022/11/27 01:03:05;;;;;;;18.92;4.45;;;;;;;7.62;83.16;102501.94;5063231;28;20025;-45
2022/11/27 01:05:30;;;;;;;13.05;4.40;;;;;;;7.59;83.18;102498.31;5060915;28;20071;-48
2022/11/27 01:07:56;;;;;;;16.58;4.40;;;;;;;7.56;83.21;102498.06;5058983;28;20029;-52
2022/11/27 01:10:21;;;;;;;18.33;4.72;;;;;;;7.52;83.19;102487.66;5062503;28;21380;-48
2022/11/27 01:12:49;;;;;;;10.00;4.18;;;;;;;7.52;83.41;102484.19;5065738;28;20448;-49
2022/11/27 01:15:14;;;;;;;15.50;4.70;;;;;;;7.49;83.35;102486.53;5061129;28;20107;-49
2022/11/27 01:17:39;;;;;;;15.20;4.43;;;;;;;7.57;83.12;102487.94;5059083;28;20131;-49
2022/11/27 01:20:06;;;;;;;17.85;4.43;;;;;;;7.48;83.20;102477.97;5065002;28;20033;-50
2022/11/27 01:22:32;;;;;;;12.38;4.18;;;;;;;7.45;83.44;102476.88;5060805;28;20033;-50
2022/11/27 01:24:57;;;;;;;16.52;4.30;;;;;;;7.45;83.23;102472.66;5063307;28;20083;-51
2022/11/27 01:27:22;;;;;;;14.45;4.30;;;;;;;7.46;83.15;102477.00;5063433;28;20056;-49
2022/11/27 01:29:48;;;;;;;18.15;5.07;;;;;;;7.39;83.05;102482.47;5061815;28;20068;-50
2022/11/27 01:32:13;;;;;;;14.80;4.60;;;;;;;7.38;83.15;102483.28;5062941;28;20067;-50
2022/11/27 01:34:38;;;;;;;13.80;4.72;;;;;;;7.33;83.13;102476.94;5056161;28;20123;-50
2022/11/27 01:37:04;;;;;;;13.82;4.75;;;;;;;7.32;83.16;102469.19;5060705;28;21284;-49
2022/11/27 01:39:29;;;;;;;13.13;4.75;;;;;;;7.33;83.21;102465.84;5061821;28;20378;-48
2022/11/27 01:41:54;;;;;;;17.63;5.45;;;;;;;7.31;82.89;102459.72;5060358;28;20429;-47
2022/11/27 01:44:23;;;;;;;16.63;5.30;;;;;;;7.32;83.27;102453.81;5061394;28;20404;-50
2022/11/27 01:46:51;;;;;;;17.52;4.93;;;;;;;7.31;83.54;102457.19;5065175;28;20036;-51
2022/11/27 01:49:31;;;;;;;15.02;4.85;;;;;;;7.32;83.50;102459.84;5067661;28;20107;-49
2022/11/27 01:52:05;;;;;;;14.60;5.53;;;;;;;7.29;83.37;102453.66;5057905;28;20420;-50
2022/11/27 01:54:40;;;;;;;16.48;5.05;;;;;;;7.24;83.50;102455.88;5064581;28;20051;-51
2022/11/27 01:57:14;;;;;;;13.73;4.50;;;;;;;7.25;83.26;102443.19;5061453;28;20028;-50
2022/11/27 01:59:40;;;;;;;18.92;5.00;;;;;;;7.21;83.18;102427.53;5065839;28;20086;-50
2022/11/27 02:02:05;;;;;;;13.32;5.13;;;;;;;7.15;83.60;102419.44;5061600;28;20032;-48
2022/11/27 02:04:30;;;;;;;12.70;5.20;;;;;;;7.18;83.62;102412.88;5063219;28;20390;-51
2022/11/27 02:06:58;;;;;;;16.65;5.10;;;;;;;7.14;83.81;102407.44;5055741;28;20021;-48
2022/11/27 02:09:25;;;;;;;13.68;5.18;;;;;;;7.12;83.56;102407.34;5061929;28;20071;-50
2022/11/27 02:12:14;;;;;;;16.05;5.25;;;;;;;7.13;83.50;102408.22;5063950;28;20468;-48
2022/11/27 02:14:57;;;;;;;15.00;4.78;;;;;;;7.21;83.35;102400.25;5056364;28;20493;-51
2022/11/27 02:17:31;;;;;;;13.07;4.70;;;;;;;7.13;83.12;102385.19;5060377;28;20385;-49
2022/11/27 02:20:29;;;;;;;15.30;4.93;;;;;;;7.23;82.85;102388.47;5063513;28;20500;-50
2022/11/27 02:23:18;;;;;;;15.35;4.63;;;;;;;7.17;82.91;102382.06;5064965;28;20480;-48
2022/11/27 02:25:49;;;;;;;;;;;;;;;7.33;82.35;102373.72;5065775;28;20422;-51
2022/11/27 02:28:36;;;;;;;15.50;5.03;;;;;;;7.10;82.53;102375.66;5058022;28;19908;-50
2022/11/27 02:31:11;;;;;;;17.98;4.80;;;;;;;7.06;83.08;102375.34;5064141;28;20028;-45
2022/11/27 02:33:42;;;;;;;14.18;4.82;;;;;;;7.05;82.60;102377.03;5063586;28;20044;-49
2022/11/27 02:36:17;;;;;;;17.63;5.15;;;;;;;7.08;82.66;102377.22;5051980;28;20074;-45
2022/11/27 02:38:58;;;;;;;13.23;4.53;;;;;;;7.08;82.78;102371.22;5061720;28;20481;-49
2022/11/27 02:41:28;;;;;;;15.35;4.68;;;;;;;7.05;82.46;102371.91;5059937;28;20035;-49
2022/11/27 02:43:56;;;;;;;14.35;4.70;;;;;;;7.03;82.23;102365.78;5064844;28;20027;-49
2022/11/27 02:46:22;;;;;;;12.90;4.70;;;;;;;7.04;81.90;102366.69;5058518;28;20028;-50
2022/11/27 02:48:57;;;;;;;15.10;5.00;;;;;;;7.04;81.75;102365.03;5062370;28;20085;-48
2022/11/27 02:51:35;;;;;;;15.13;5.00;;;;;;;7.04;81.77;102361.56;5059968;28;20029;-47
2022/11/27 02:54:04;;;;;;;16.25;4.85;;;;;;;7.03;81.62;102368.34;5061577;28;20044;-50
2022/11/27 02:56:31;;;;;;;12.00;4.90;;;;;;;7.04;81.64;102375.25;5060733;28;20550;-49
2022/11/27 02:59:01;;;;;;;14.02;4.90;;;;;;;7.01;81.38;102369.94;5061399;28;20119;-51
2022/11/27 03:01:31;;;;;;;14.93;4.95;;;;;;;7.01;81.45;102371.59;5060751;28;20393;-50
2022/11/27 03:03:59;;;;;;;16.58;5.35;;;;;;;6.95;81.14;102375.53;5061617;28;20496;-49
2022/11/27 03:06:40;;;;;;;15.98;4.50;;;;;;;7.01;81.67;102381.84;5055574;28;20021;-50
2022/11/27 03:09:12;;;;;;;15.35;5.28;;;;;;;6.94;81.08;102383.09;5057910;28;20048;-50
2022/11/27 03:11:38;;;;;;;10.43;4.15;;;;;;;6.90;81.08;102374.31;5061170;28;20029;-50
2022/11/27 03:14:07;;;;;;;14.32;4.78;;;;;;;6.92;81.35;102375.34;5065470;28;20039;-50
2022/11/27 03:17:00;;;;;;;12.95;4.72;;;;;;;7.01;81.10;102358.81;5060308;28;20028;-48
2022/11/27 03:19:37;;;;;;;11.20;4.45;;;;;;;6.94;81.04;102358.41;5059389;28;20400;-49
2022/11/27 03:22:03;;;;;;;14.98;4.50;;;;;;;6.91;80.96;102350.53;5061433;28;20489;-47
2022/11/27 03:24:31;;;;;;;12.55;4.70;;;;;;;6.93;81.01;102351.53;5064136;28;20059;-49
2022/11/27 03:26:58;;;;;;;12.98;4.55;;;;;;;6.93;80.83;102354.09;5064330;28;20504;-45
2022/11/27 03:29:47;;;;;;;12.32;4.50;;;;;;;6.96;81.44;102349.16;5065328;28;20032;-50
2022/11/27 03:32:13;;;;;;;11.45;4.55;;;;;;;6.93;80.58;102353.19;5064082;28;20051;-51
2022/11/27 03:34:38;;;;;;;13.52;4.40;;;;;;;6.88;80.34;102352.88;5060379;28;20040;-47
2022/11/27 03:37:04;;;;;;;14.88;4.63;;;;;;;6.88;80.28;102347.78;5057258;28;20119;-48
2022/11/27 03:39:30;;;;;;;11.75;4.53;;;;;;;6.88;81.04;102345.22;5062081;28;20401;-49
2022/11/27 03:42:19;;;;;;;11.73;4.38;;;;;;;6.89;80.68;102343.53;5055049;28;20032;-49
2022/11/27 03:44:54;;;;;;;12.38;4.00;;;;;;;6.95;80.36;102344.84;5057198;28;20066;-45
2022/11/27 03:47:35;;;;;;;10.30;4.15;;;;;;;6.97;80.40;102321.91;5061009;28;20071;-51
2022/11/27 03:50:19;;;;;;;9.02;4.22;;;;;;;6.94;80.51;102312.38;5063107;28;20536;-51
2022/11/27 03:52:47;;;;;;;13.85;4.30;;;;;;;6.90;80.07;102314.63;5061861;28;20033;-47
2022/11/27 03:55:26;;;;;;;11.93;4.38;;;;;;;6.90;80.52;102330.84;5052404;28;20549;-46
2022/11/27 03:58:42;;;;;;;12.20;4.03;;;;;;;6.94;80.51;102325.16;5060522;28;20036;-48
2022/11/27 04:01:12;;;;;;;14.05;4.20;;;;;;;6.87;80.51;102322.13;5023499;28;20029;-46
2022/11/27 04:03:37;;;;;;;7.32;3.92;;;;;;;6.85;80.40;102322.00;5030059;28;20029;-50
2022/11/27 04:06:03;;;;;;;9.68;3.78;;;;;;;6.86;80.38;102321.22;5053044;28;20396;-48
2022/11/27 04:08:28;;;;;;;7.70;3.72;;;;;;;6.91;80.43;102316.41;5059697;28;20086;-49
2022/11/27 04:10:54;;;;;;;10.25;4.35;;;;;;;6.85;80.48;102319.44;5063171;28;20028;-48
2022/11/27 04:13:19;;;;;;;12.43;4.30;;;;;;;6.90;80.30;102330.84;5066242;28;20028;-46
2022/11/27 04:15:44;;;;;;;11.55;4.32;;;;;;;6.89;80.25;102338.44;5060164;28;20492;-49
2022/11/27 04:18:10;;;;;;;12.65;3.80;;;;;;;6.87;79.83;102340.00;5058459;28;20416;-49
2022/11/27 04:20:35;;;;;;;12.25;4.03;;;;;;;6.88;79.98;102345.22;5064409;28;20055;-49
2022/11/27 04:23:01;;;;;;;11.80;3.88;;;;;;;6.89;80.18;102341.00;5065111;28;20048;-46
2022/11/27 04:25:26;;;;;;;15.13;3.60;;;;;;;6.91;80.25;102344.53;5063453;28;20029;-50
2022/11/27 04:27:52;;;;;;;13.00;3.78;;;;;;;6.92;80.31;102336.97;5068267;28;20024;-50
2022/11/27 04:30:17;;;;;;;11.63;4.22;;;;;;;6.95;80.29;102336.28;5064388;28;20036;-51
2022/11/27 04:32:43;;;;;;;10.93;4.63;;;;;;;6.96;79.65;102330.38;5063058;28;20049;-50
2022/11/27 04:35:08;;;;;;;9.13;3.63;;;;;;;6.92;79.88;102329.31;5062273;28;20024;-45
2022/11/27 04:37:34;;;;;;;9.65;3.70;;;;;;;6.93;79.64;102330.19;5068049;28;20028;-49
2022/11/27 04:40:00;;;;;;;12.25;3.70;;;;;;;6.96;79.90;102330.38;5059410;28;20546;-49
2022/11/27 04:42:25;;;;;;;13.20;3.75;;;;;;;6.94;79.97;102327.72;5063320;28;20037;-52
2022/11/27 04:44:50;;;;;;;9.80;3.92;;;;;;;6.92;79.89;102333.53;5064909;28;20044;-48
2022/11/27 04:47:16;;;;;;;9.50;3.85;;;;;;;6.94;79.77;102337.94;5065674;28;20074;-50
2022/11/27 04:49:41;;;;;;;9.43;3.90;;;;;;;6.90;80.25;102323.19;5064144;28;20036;-49
2022/11/27 04:52:06;;;;;;;9.10;3.72;;;;;;;6.95;79.98;102314.16;5066165;28;20028;-51
2022/11/27 04:54:32;;;;;;;9.63;3.67;;;;;;;6.94;79.66;102306.38;5060277;28;20036;-49
2022/11/27 04:56:57;;;;;;;8.05;3.33;;;;;;;6.95;79.72;102308.16;5064144;28;20036;-50
2022/11/27 04:59:22;;;;;;;9.65;3.55;;;;;;;6.96;79.38;102297.13;5061261;28;20075;-50
2022/11/27 05:01:48;;;;;;;10.10;3.42;;;;;;;6.93;79.71;102296.94;5064749;28;20028;-46
2022/11/27 05:04:14;;;;;;;11.75;3.20;;;;;;;6.97;79.45;102289.56;5063920;28;20041;-50
2022/11/27 05:06:39;;;;;;;7.40;3.45;;;;;;;6.95;79.77;102290.25;5064782;28;20028;-47
2022/11/27 05:09:04;;;;;;;9.50;3.88;;;;;;;6.96;79.39;102290.34;5066653;28;20036;-47
2022/11/27 05:11:30;;;;;;;12.38;3.45;;;;;;;6.95;79.32;102283.47;5058669;28;20052;-48
2022/11/27 05:14:15;;;;;;;12.73;3.42;;;;;;;6.97;79.50;102287.00;5061348;28;20487;-50
2022/11/27 05:16:49;;;;;;;8.93;3.40;;;;;;;6.97;79.42;102283.56;5065887;28;20031;-44
2022/11/27 05:19:16;;;;;;;10.30;3.72;;;;;;;6.94;78.92;102279.13;5058889;28;20041;-51
2022/11/27 05:21:42;;;;;;;9.35;3.50;;;;;;;6.92;79.46;102275.59;5062850;28;20427;-51
2022/11/27 05:24:08;;;;;;;11.50;3.50;;;;;;;6.92;79.62;102273.06;5059883;28;20051;-51
2022/11/27 05:26:34;;;;;;;9.48;3.13;;;;;;;6.93;79.61;102268.81;5060470;28;20518;-47
2022/11/27 05:29:01;;;;;;;12.07;3.33;;;;;;;6.94;79.34;102266.34;5062713;28;20060;-52
2022/11/27 05:31:27;;;;;;;7.97;3.00;;;;;;;6.95;79.09;102267.22;5064880;28;20111;-51
2022/11/27 05:33:52;;;;;;;13.30;3.35;;;;;;;6.94;78.88;102268.91;5056957;28;20505;-47
2022/11/27 05:36:17;;;;;;;13.20;3.35;;;;;;;6.94;79.29;102255.25;5065067;28;20032;-48
2022/11/27 05:38:43;;;;;;;7.20;2.90;;;;;;;6.94;79.21;102257.78;5063319;28;20028;-51
2022/11/27 05:41:08;;;;;;;7.53;3.00;;;;;;;6.97;79.03;102261.41;5055246;28;20041;-47
2022/11/27 05:43:34;;;;;;;8.52;3.00;;;;;;;6.92;78.66;102260.25;5062269;28;20044;-50
2022/11/27 05:46:04;;;;;;;11.55;3.25;;;;;;;6.96;78.96;102261.31;5063344;28;20051;-47
2022/11/27 05:48:29;;;;;;;12.50;3.42;;;;;;;6.93;79.26;102256.03;5062238;28;20288;-51
2022/11/27 05:50:55;;;;;;;6.57;3.05;;;;;;;6.93;78.89;102254.34;5064690;28;20033;-51
2022/11/27 05:53:20;;;;;;;7.95;3.30;;;;;;;6.92;79.41;102252.59;5065531;28;20111;-51
2022/11/27 05:55:45;;;;;;;6.57;2.90;;;;;;;6.89;79.46;102247.25;5062105;28;20041;-47
2022/11/27 05:58:11;;;;;;;9.45;2.92;;;;;;;6.92;79.36;102241.47;5062688;28;20441;-50
2022/11/27 06:00:36;;;;;;;7.88;3.10;;;;;;;6.96;79.20;102235.75;5064180;28;20393;-52
2022/11/27 06:03:01;;;;;;;8.60;3.20;;;;;;;6.94;79.50;102233.09;5064407;28;20025;-49
2022/11/27 06:05:27;;;;;;;13.02;3.30;;;;;;;6.94;79.66;102228.00;5065080;28;20450;-48
2022/11/27 06:07:52;;;;;;;7.68;2.90;;;;;;;6.94;79.16;102225.44;5067098;28;20464;-45
2022/11/27 06:10:17;;;;;;;11.70;3.17;;;;;;;6.94;79.29;102230.56;5065415;28;20032;-49
2022/11/27 06:12:43;;;;;;;9.88;3.05;;;;;;;6.96;79.23;102231.53;5056871;28;20107;-50
2022/11/27 06:15:08;;;;;;;10.13;3.17;;;;;;;6.99;79.37;102228.28;5058419;28;20028;-47
2022/11/27 06:17:34;;;;;;;9.98;3.15;;;;;;;6.95;79.56;102231.44;5060702;28;20108;-51
2022/11/27 06:19:59;;;;;;;12.88;3.25;;;;;;;6.96;79.61;102228.97;5062070;28;20067;-48
2022/11/27 06:22:24;;;;;;;7.60;3.35;;;;;;;6.96;78.80;102231.53;5059309;28;20040;-48
2022/11/27 06:24:50;;;;;;;10.32;3.53;;;;;;;6.98;79.42;102226.53;5066705;28;20035;-50
2022/11/27 06:27:15;;;;;;;8.80;3.03;;;;;;;7.00;79.50;102214.72;5061261;28;20040;-49
2022/11/27 06:29:40;;;;;;;7.53;3.20;;;;;;;7.01;79.90;102216.47;5060150;28;20048;-46
2022/11/27 06:32:06;;;;;;;9.30;2.97;;;;;;;7.00;79.63;102214.72;5062351;28;20075;-50
2022/11/27 06:34:31;;;;;;;10.73;3.75;;;;;;;7.01;79.63;102218.16;5066292;28;20028;-50
2022/11/27 06:36:57;;;;;;;6.38;3.10;;;;;;;7.03;79.53;102220.00;5065599;28;20036;-49
2022/11/27 06:39:22;;;;;;;11.35;3.38;;;;;;;7.02;79.57;102218.25;5066398;28;20032;-49
2022/11/27 06:41:47;;;;;;;8.70;2.97;;;;;;;7.04;79.90;102226.94;5062085;28;20074;-50
2022/11/27 06:44:13;;;;;;;8.43;3.05;;;;;;;7.02;79.71;102218.25;5056653;28;20032;-50
2022/11/27 06:46:38;;;;;;;7.40;3.25;;;;;;;7.05;80.21;102223.56;5063035;28;20114;-49
2022/11/27 06:49:04;;;;;;;10.05;3.47;;;;;;;7.04;80.65;102215.78;5060995;28;20036;-47
2022/11/27 06:51:31;;;;;;;6.88;3.10;;;;;;;7.04;80.64;102211.56;5063615;28;20036;-50
2022/11/27 06:53:58;;;;;;;7.85;3.40;;;;;;;7.02;81.08;102208.00;5060261;28;20043;-49
2022/11/27 06:56:26;;;;;;;10.20;3.08;;;;;;;7.03;81.27;102203.78;5063471;28;20082;-48
2022/11/27 06:58:53;;;;;;;9.52;3.33;;;;;;;7.03;81.45;102198.66;5062379;28;20036;-50
2022/11/27 07:01:19;;;;;;;12.68;3.97;;;;;;;6.99;82.10;102201.03;5060904;28;20031;-49
2022/11/27 07:03:45;;;;;;;7.30;3.22;;;;;;;6.99;82.27;102203.59;5062177;28;20033;-51
2022/11/27 07:06:13;;;;;;;8.25;3.13;;;;;;;6.99;82.33;102195.94;5061353;28;20059;-50
2022/11/27 07:08:39;;;;;;;10.82;3.35;;;;;;;7.03;82.63;102194.44;5063823;28;20036;-50
2022/11/27 07:11:12;;;;;;;7.97;3.60;;;;;;;7.03;83.44;102188.44;5062106;28;20051;-50
2022/11/27 07:13:38;;;;;;;5.90;3.05;;;;;;;7.05;82.88;102184.31;5062815;28;20021;-51
2022/11/27 07:16:08;;;;;;;7.32;3.67;;;;;;;7.04;83.33;102180.88;5057546;28;20062;-51
2022/11/27 07:18:40;;;;;;;13.38;4.05;;;;;;;7.03;83.31;102173.09;5058556;28;20495;-50
2022/11/27 07:21:06;;;;;;;8.27;3.63;;;;;;;7.04;83.59;102172.28;5064720;28;21497;-50
2022/11/27 07:23:31;;;;;;;11.77;3.83;;;;;;;7.02;83.77;102161.97;5062872;28;20090;-50
2022/11/27 07:25:57;;;;;;;9.18;3.55;;;;;;;7.01;84.13;102167.00;5064930;28;20416;-48
2022/11/27 07:28:23;;;;;;;6.60;3.47;;;;;;;6.98;84.20;102155.81;5059762;28;20025;-51
2022/11/27 07:30:55;;;;;;;13.30;3.58;;;;;;;7.02;84.30;102169.66;5061375;28;20025;-50
2022/11/27 07:33:21;;;;;;;9.27;3.55;;;;;;;7.00;84.51;102163.56;5059550;28;20031;-47
2022/11/27 07:35:47;;;;;;;8.50;3.42;;;;;;;6.98;84.75;102154.94;5062190;28;20028;-48
2022/11/27 07:38:12;;;;;;;14.15;3.40;;;;;;;6.99;84.52;102149.03;5060558;28;20053;-50
2022/11/27 07:40:38;;;;;;;8.38;3.50;;;;;;;7.00;84.79;102145.66;5058607;28;20120;-48
2022/11/27 07:43:03;;;;;;;9.27;3.53;;;;;;;6.96;84.85;102149.69;5063519;28;20034;-50
2022/11/27 07:45:28;;;;;;;8.43;3.83;;;;;;;7.00;85.43;102145.66;5051011;28;20037;-49
2022/11/27 07:47:54;;;;;;;9.50;3.92;;;;;;;6.97;85.58;102145.47;5060321;28;20029;-49
2022/11/27 07:50:20;;;;;;;8.73;3.60;;;;;;;6.96;85.46;102144.56;5062264;28;20733;-47
2022/11/27 07:52:45;;;;;;;9.02;3.72;;;;;;;6.98;85.75;102134.47;5061945;28;20036;-47
2022/11/27 07:55:10;;;;;;;8.70;3.60;;;;;;;6.97;85.93;102127.56;5060947;28;20044;-49
2022/11/27 07:57:36;;;;;;;11.45;3.63;;;;;;;6.98;85.43;102125.13;5058326;28;20115;-50
2022/11/27 08:00:02;;;;;;;9.23;4.07;;;;;;;6.95;85.78;102109.56;5059521;28;20029;-46
2022/11/27 08:02:28;;;;;;;9.68;4.18;;;;;;;6.94;85.65;102107.81;5057528;28;20029;-50
2022/11/27 08:04:53;;;;;;;12.20;4.30;;;;;;;6.89;86.05;102106.63;5061202;28;20074;-50
2022/11/27 08:07:18;;;;;;;8.85;3.90;;;;;;;6.92;86.02;102104.28;5061285;28;20029;-45
2022/11/27 08:09:44;;;;;;;11.35;5.07;;;;;;;6.92;86.16;102103.41;5060638;28;20055;-50
2022/11/27 08:12:09;;;;;;;10.85;4.90;;;;;;;6.95;85.94;102104.47;5064913;28;20570;-50
2022/11/27 08:14:35;;;;;;;11.75;5.15;;;;;;;6.91;86.38;102106.72;5065471;28;20021;-49
2022/11/27 08:17:00;;;;;;;9.15;4.90;;;;;;;6.91;86.51;102110.16;5053724;28;20036;-49
2022/11/27 08:19:25;;;;;;;10.88;5.00;;;;;;;6.96;86.29;102105.34;5053403;28;20039;-49
2022/11/27 08:21:51;;;;;;;11.25;4.95;;;;;;;6.97;86.69;102101.97;5058520;28;20025;-50
2022/11/27 08:24:16;;;;;;;11.48;4.75;;;;;;;6.96;86.59;102106.22;5059371;28;20105;-50
2022/11/27 08:26:42;;;;;;;13.23;5.80;;;;;;;6.99;86.62;102095.31;5065137;28;20040;-52
2022/11/27 08:29:10;;;;;;;12.05;5.40;;;;;;;6.99;86.82;102098.75;5061211;28;20064;-49
2022/11/27 08:31:36;;;;;;;11.93;5.28;;;;;;;7.01;86.90;102109.06;5058881;28;20024;-47
2022/11/27 08:34:01;;;;;;;11.32;5.72;;;;;;;7.02;87.24;102109.94;5061029;28;20033;-48
2022/11/27 08:36:27;;;;;;;11.98;5.50;;;;;;;7.02;87.14;102102.28;5061727;28;20131;-50
2022/11/27 08:38:53;;;;;;;11.38;5.90;;;;;;;7.02;87.18;102108.28;5061539;28;20039;-49
2022/11/27 08:41:19;;;;;;;12.27;5.90;;;;;;;7.01;87.06;102103.97;5057964;28;20028;-49
2022/11/27 08:43:44;;;;;;;12.65;5.80;;;;;;;7.02;87.37;102104.84;5059563;28;20563;-50
2022/11/27 08:46:10;;;;;;;11.13;5.72;;;;;;;7.03;87.74;102101.47;5057989;28;20082;-48
2022/11/27 08:48:36;;;;;;;10.77;5.78;;;;;;;7.09;87.61;102102.75;5055248;28;20093;-51
2022/11/27 08:51:07;;;;;;;13.50;5.60;;;;;;;7.09;87.59;102101.88;5060187;28;20452;-49
2022/11/27 08:53:33;;;;;;;12.23;6.22;;;;;;;7.06;87.79;102106.81;5062304;28;20484;-49
2022/11/27 08:56:13;;;;;;;14.18;6.40;;;;;;;7.10;87.82;102107.09;5059960;28;20037;-55
2022/11/27 08:58:39;;;;;;;12.65;6.32;;;;;;;7.07;87.89;102108.56;5066267;28;20032;-50
2022/11/27 09:01:19;;;;;;;12.20;6.18;;;;;;;7.11;87.58;102110.53;5063273;28;20633;-48
2022/11/27 09:03:45;;;;;;;;;;;;;;;7.25;86.82;102110.59;5068415;28;20063;-47
2022/11/27 09:06:16;;;;;;;11.43;5.90;;;;;;;7.14;87.73;102109.03;5065902;28;19962;-49
2022/11/27 09:08:42;;;;;;;14.38;6.43;;;;;;;7.11;87.83;102106.31;5067941;28;20032;-49
2022/11/27 09:11:09;;;;;;;11.98;6.22;;;;;;;7.11;87.72;102111.41;5063669;28;20381;-50
2022/11/27 09:13:36;;;;;;;14.63;6.43;;;;;;;7.09;87.89;102110.41;5065146;28;20127;-50
2022/11/27 09:16:06;;;;;;;16.45;7.28;;;;;;;7.10;88.32;102099.44;5061310;28;20043;-48
2022/11/27 09:18:32;;;;;;;14.77;7.30;;;;;;;7.12;88.73;102099.50;5061093;28;20035;-51
2022/11/27 09:21:08;;;;;;;15.73;6.95;;;;;;;7.21;88.65;102105.19;5062365;28;20033;-49
2022/11/27 09:23:34;;;;;;;12.27;6.72;;;;;;;7.17;88.52;102101.56;5065178;28;20028;-54
2022/11/27 09:26:06;;;;;;;11.50;6.32;;;;;;;7.22;88.55;102104.41;5059973;28;20121;-51
2022/11/27 09:28:32;;;;;;;15.32;7.13;;;;;;;7.20;88.65;102100.84;5065091;28;20511;-52
2022/11/27 09:31:01;;;;;;;12.73;6.20;;;;;;;7.25;88.67;102104.59;5065488;28;20461;-50
2022/11/27 09:33:28;;;;;;;15.23;7.53;;;;;;;7.24;88.39;102100.25;5064807;28;20365;-50
2022/11/27 09:35:53;;;;;;;11.88;7.03;;;;;;;7.24;88.60;102101.16;5062359;28;20020;-51
2022/11/27 09:38:19;;;;;;;13.07;5.93;;;;;;;7.26;88.63;102094.44;5061919;28;20099;-50
2022/11/27 09:40:51;;;;;;;12.88;6.85;;;;;;;7.30;88.87;102103.19;5065486;28;20039;-50
2022/11/27 09:43:25;;;;;;;11.60;6.43;;;;;;;7.33;88.83;102102.47;5063559;28;20052;-51
2022/11/27 09:45:55;;;;;;;14.65;7.00;;;;;;;7.33;89.41;102097.38;5060716;28;20028;-49
2022/11/27 09:48:46;;;;;;;13.20;6.72;;;;;;;7.37;89.73;102105.34;5061855;28;20032;-50
2022/11/27 09:51:24;;;;;;;14.73;7.50;;;;;;;7.38;89.36;102094.28;5050262;28;20025;-50
2022/11/27 09:54:06;;;;;;;13.73;6.95;;;;;;;7.40;89.72;102095.28;5062096;28;20488;-46
2022/11/27 09:56:34;;;;;;;15.75;8.10;;;;;;;7.38;89.89;102089.19;5067115;28;20484;-50
2022/11/27 09:59:01;;;;;;;13.83;7.73;;;;;;;7.40;89.79;102085.06;5067242;28;20047;-51
2022/11/27 10:01:29;;;;;;;12.23;6.63;;;;;;;7.43;89.39;102069.88;5065414;28;20036;-49
2022/11/27 10:03:54;;;;;;;13.35;7.30;;;;;;;7.43;89.99;102064.75;5063673;28;20094;-50
2022/11/27 10:06:35;;;;;;;13.45;7.45;;;;;;;7.47;90.28;102064.16;5061801;28;20056;-53
2022/11/27 10:09:17;;;;;;;13.60;6.95;;;;;;;7.51;89.96;102063.53;5062683;28;20131;-49
2022/11/27 10:11:59;;;;;;;12.52;6.80;;;;;;;7.49;90.31;102059.13;5062724;28;20045;-50
2022/11/27 10:14:58;;;;;;;12.82;6.47;;;;;;;7.55;90.33;102051.81;5060586;28;20500;-48
2022/11/27 10:17:51;;;;;;;12.30;6.50;;;;;;;7.55;90.19;102048.38;5060450;28;20127;-48
2022/11/27 10:20:31;;;;;;;12.48;6.60;;;;;;;7.52;90.91;102046.50;5063163;28;21796;-49
2022/11/27 10:23:33;;;;;;;14.10;6.38;;;;;;;7.57;90.77;102039.97;5057683;28;20033;-48
2022/11/27 10:26:05;;;;;;;13.13;6.97;;;;;;;7.56;90.98;102035.66;5060516;28;20111;-50
2022/11/27 10:28:59;;;;;;;10.45;6.60;;;;;;;7.61;90.95;102034.25;5062657;28;20576;-50
2022/11/27 10:31:36;;;;;;;11.57;6.18;;;;;;;7.58;91.11;102028.06;5054752;28;20127;-51
2022/11/27 10:34:05;;;;;;;13.20;6.78;;;;;;;7.59;91.17;102032.41;5060218;28;20119;-50
2022/11/27 10:36:38;;;;;;;12.35;6.85;;;;;;;7.59;91.01;102024.72;5063777;28;20039;-49
2022/11/27 10:39:10;;;;;;;13.88;6.57;;;;;;;7.60;90.64;102022.25;5059296;28;20527;-50
2022/11/27 10:42:07;;;;;;;12.68;7.07;;;;;;;7.63;90.95;102014.72;5058607;28;21089;-49
2022/11/27 10:45:00;;;;;;;13.55;6.68;;;;;;;7.64;91.05;102008.81;5057059;28;20024;-48
2022/11/27 10:47:27;;;;;;;13.25;7.35;;;;;;;7.58;91.01;102005.91;5053483;28;20025;-50
2022/11/27 10:49:53;;;;;;;14.90;6.55;;;;;;;7.59;91.06;101994.91;5061432;28;20157;-50
2022/11/27 10:52:19;;;;;;;10.73;6.63;;;;;;;7.60;91.11;102000.88;5054320;28;20497;-52
2022/11/27 10:54:51;;;;;;;18.17;7.10;;;;;;;7.62;90.61;101996.72;5061527;28;20071;-50
2022/11/27 10:57:23;;;;;;;12.20;7.07;;;;;;;7.64;90.51;101988.34;5060553;28;20470;-52
2022/11/27 11:00:08;;;;;;;16.17;7.63;;;;;;;7.66;90.82;101994.44;5057443;28;20051;-48
2022/11/27 11:02:37;;;;;;;12.50;7.20;;;;;;;7.64;90.86;101988.34;5062048;28;20672;-50
2022/11/27 11:05:22;;;;;;;14.07;7.25;;;;;;;7.69;90.26;101986.94;5063281;28;20107;-50
2022/11/27 11:08:16;;;;;;;14.23;7.72;;;;;;;7.66;90.46;101993.56;5060152;28;20093;-51
2022/11/27 11:10:52;;;;;;;13.82;7.03;;;;;;;7.67;90.31;101978.28;5061089;28;20029;-50
2022/11/27 11:13:29;;;;;;;13.88;6.97;;;;;;;7.70;90.29;101975.88;5058333;28;20029;-50
2022/11/27 11:16:05;;;;;;;12.93;7.40;;;;;;;7.68;90.59;101961.25;5063717;28;20059;-51
2022/11/27 11:18:33;;;;;;;11.35;7.47;;;;;;;7.69;90.57;101965.56;5064861;28;20042;-50
2022/11/27 11:21:06;;;;;;;11.77;7.13;;;;;;;7.71;90.50;101969.13;5058195;28;20036;-52
2022/11/27 11:23:35;;;;;;;13.68;7.53;;;;;;;7.70;89.92;101951.97;5057578;28;20013;-49
2022/11/27 11:26:06;;;;;;;13.25;7.05;;;;;;;7.71;89.24;101948.63;5063262;28;20489;-49
2022/11/27 11:28:39;;;;;;;10.40;7.20;;;;;;;7.71;89.78;101949.50;5061545;28;20086;-48
2022/11/27 11:31:08;;;;;;;12.52;6.60;;;;;;;7.73;89.61;101947.91;5062971;28;20039;-47
2022/11/27 11:33:48;;;;;;;14.55;7.70;;;;;;;7.75;90.13;101938.63;5062101;28;20488;-49
2022/11/27 11:36:14;;;;;;;10.57;7.05;;;;;;;7.72;90.41;101933.34;5057067;28;20472;-48
2022/11/27 11:38:44;;;;;;;12.25;7.03;;;;;;;7.75;90.79;101914.72;5064457;28;20066;-51